Terminal Aerodrome Forecast
Issued by NWS

Home | Current Version | Previous Version | Graphics & Text | Print | Product List | Glossary On
Versions: 1 2 3 4 5 6 7 8 9 10 11 12 13 14 15 16 17 18 19 20 21 22 23
945
FTUS43 KABR 270525
TAFATY
TAF
KATY 270525Z 2706/2806 15003KT P6SM BKN120
     FM270900 VRB04KT 4SM BR OVC035
     FM271100 VRB03KT 2SM BR BKN025
     FM271600 VRB03KT P6SM BKN050=

USA.gov is the U.S. government's official web portal to all federal, state and local government web resources and services.